sensor_id;sensor_type;location;lat;lon;timestamp;pressure;altitude;pressure_sealevel;temperature
72236;BMP280;60146;52.498;13.462;2024-03-25T00:00:40;94949.47;;;7.80
72236;BMP280;60146;52.498;13.462;2024-03-25T00:03:05;94963.00;;;7.91
72236;BMP280;60146;52.498;13.462;2024-03-25T00:05:31;94972.38;;;7.88
72236;BMP280;60146;52.498;13.462;2024-03-25T00:07:57;94954.22;;;7.85
72236;BMP280;60146;52.498;13.462;2024-03-25T00:10:23;94926.31;;;7.86
72236;BMP280;60146;52.498;13.462;2024-03-25T00:12:49;94930.66;;;7.92
72236;BMP280;60146;52.498;13.462;2024-03-25T00:15:21;94919.97;;;7.87
72236;BMP280;60146;52.498;13.462;2024-03-25T00:17:49;94910.44;;;7.99
72236;BMP280;60146;52.498;13.462;2024-03-25T00:20:14;94971.38;;;8.02
72236;BMP280;60146;52.498;13.462;2024-03-25T00:22:40;94977.97;;;8.09
72236;BMP280;60146;52.498;13.462;2024-03-25T00:25:06;95006.34;;;8.04
72236;BMP280;60146;52.498;13.462;2024-03-25T00:27:31;95036.78;;;8.07
72236;BMP280;60146;52.498;13.462;2024-03-25T00:29:57;95073.09;;;8.17
72236;BMP280;60146;52.498;13.462;2024-03-25T00:32:22;95176.94;;;8.15
72236;BMP280;60146;52.498;13.462;2024-03-25T00:34:48;95168.34;;;8.18
72236;BMP280;60146;52.498;13.462;2024-03-25T00:37:13;95177.19;;;8.24
72236;BMP280;60146;52.498;13.462;2024-03-25T00:39:39;95200.38;;;8.15
72236;BMP280;60146;52.498;13.462;2024-03-25T00:42:05;95226.78;;;8.17
72236;BMP280;60146;52.498;13.462;2024-03-25T00:44:31;95239.91;;;8.10
72236;BMP280;60146;52.498;13.462;2024-03-25T00:46:56;95218.78;;;8.02
72236;BMP280;60146;52.498;13.462;2024-03-25T00:51:53;95315.25;;;7.95
72236;BMP280;60146;52.498;13.462;2024-03-25T00:54:18;95287.78;;;7.90
72236;BMP280;60146;52.498;13.462;2024-03-25T00:56:43;95236.66;;;8.03
72236;BMP280;60146;52.498;13.462;2024-03-25T00:59:09;95362.00;;;8.02
72236;BMP280;60146;52.498;13.462;2024-03-25T01:01:35;95444.19;;;8.09
72236;BMP280;60146;52.498;13.462;2024-03-25T01:04:03;95455.78;;;8.05
72236;BMP280;60146;52.498;13.462;2024-03-25T01:06:29;95434.56;;;8.03
72236;BMP280;60146;52.498;13.462;2024-03-25T01:08:54;95412.66;;;8.01
72236;BMP280;60146;52.498;13.462;2024-03-25T01:11:20;95371.97;;;8.13
72236;BMP280;60146;52.498;13.462;2024-03-25T01:13:46;95410.31;;;8.09
72236;BMP280;60146;52.498;13.462;2024-03-25T01:16:12;95430.75;;;8.14
72236;BMP280;60146;52.498;13.462;2024-03-25T01:18:37;95445.25;;;8.12
72236;BMP280;60146;52.498;13.462;2024-03-25T01:21:03;95494.41;;;8.10
72236;BMP280;60146;52.498;13.462;2024-03-25T01:23:29;95482.09;;;8.14
72236;BMP280;60146;52.498;13.462;2024-03-25T01:25:55;95485.13;;;8.09
72236;BMP280;60146;52.498;13.462;2024-03-25T01:28:20;95490.31;;;8.12
72236;BMP280;60146;52.498;13.462;2024-03-25T01:30:46;95477.69;;;8.07
72236;BMP280;60146;52.498;13.462;2024-03-25T01:33:11;95461.63;;;8.16
72236;BMP280;60146;52.498;13.462;2024-03-25T01:35:36;95473.63;;;8.07
72236;BMP280;60146;52.498;13.462;2024-03-25T01:38:02;95454.53;;;8.16
72236;BMP280;60146;52.498;13.462;2024-03-25T01:40:28;95495.78;;;8.21
72236;BMP280;60146;52.498;13.462;2024-03-25T01:43:02;95482.75;;;8.21
72236;BMP280;60146;52.498;13.462;2024-03-25T01:45:30;95505.47;;;8.21
72236;BMP280;60146;52.498;13.462;2024-03-25T01:48:07;95449.66;;;8.22
72236;BMP280;60146;52.498;13.462;2024-03-25T01:50:35;95454.81;;;8.25
72236;BMP280;60146;52.498;13.462;2024-03-25T01:53:02;95443.75;;;8.14
72236;BMP280;60146;52.498;13.462;2024-03-25T01:55:29;95483.13;;;8.23
72236;BMP280;60146;52.498;13.462;2024-03-25T01:57:56;95426.25;;;8.18
72236;BMP280;60146;52.498;13.462;2024-03-25T02:00:22;95393.16;;;8.12
72236;BMP280;60146;52.498;13.462;2024-03-25T02:02:50;95413.53;;;7.87
72236;BMP280;60146;52.498;13.462;2024-03-25T02:05:16;95390.78;;;7.91
72236;BMP280;60146;52.498;13.462;2024-03-25T02:07:43;95400.16;;;7.86
72236;BMP280;60146;52.498;13.462;2024-03-25T02:10:09;95430.22;;;7.93
72236;BMP280;60146;52.498;13.462;2024-03-25T02:12:36;95518.41;;;7.88
72236;BMP280;60146;52.498;13.462;2024-03-25T02:15:01;95674.38;;;7.62
72236;BMP280;60146;52.498;13.462;2024-03-25T02:17:27;95690.00;;;7.69
72236;BMP280;60146;52.498;13.462;2024-03-25T02:19:52;95800.06;;;7.76
72236;BMP280;60146;52.498;13.462;2024-03-25T02:22:18;95868.13;;;7.75
72236;BMP280;60146;52.498;13.462;2024-03-25T02:24:45;95950.69;;;7.74
72236;BMP280;60146;52.498;13.462;2024-03-25T02:27:11;95998.31;;;7.78
72236;BMP280;60146;52.498;13.462;2024-03-25T02:29:40;95925.03;;;7.76
72236;BMP280;60146;52.498;13.462;2024-03-25T02:32:06;95844.31;;;7.76
72236;BMP280;60146;52.498;13.462;2024-03-25T02:34:31;95758.78;;;7.78
72236;BMP280;60146;52.498;13.462;2024-03-25T02:36:57;95702.25;;;7.75
72236;BMP280;60146;52.498;13.462;2024-03-25T02:39:22;95616.06;;;7.56
72236;BMP280;60146;52.498;13.462;2024-03-25T02:41:49;95525.22;;;7.72
72236;BMP280;60146;52.498;13.462;2024-03-25T02:44:15;95498.78;;;7.73
72236;BMP280;60146;52.498;13.462;2024-03-25T02:46:41;95448.59;;;7.76
72236;BMP280;60146;52.498;13.462;2024-03-25T02:49:06;95375.69;;;7.76
72236;BMP280;60146;52.498;13.462;2024-03-25T02:51:32;95299.16;;;7.70
72236;BMP280;60146;52.498;13.462;2024-03-25T02:53:57;95187.50;;;7.79
72236;BMP280;60146;52.498;13.462;2024-03-25T02:56:22;95148.34;;;7.86
72236;BMP280;60146;52.498;13.462;2024-03-25T02:58:48;95119.13;;;7.72
72236;BMP280;60146;52.498;13.462;2024-03-25T03:01:15;95038.59;;;7.62
72236;BMP280;60146;52.498;13.462;2024-03-25T03:03:41;94999.91;;;7.64
72236;BMP280;60146;52.498;13.462;2024-03-25T03:06:06;95109.69;;;7.59
72236;BMP280;60146;52.498;13.462;2024-03-25T03:08:31;95221.91;;;7.61
72236;BMP280;60146;52.498;13.462;2024-03-25T03:10:57;95284.44;;;7.54
72236;BMP280;60146;52.498;13.462;2024-03-25T03:13:22;95323.84;;;7.56
72236;BMP280;60146;52.498;13.462;2024-03-25T03:15:47;95349.09;;;7.59
72236;BMP280;60146;52.498;13.462;2024-03-25T03:18:13;95367.97;;;7.69
72236;BMP280;60146;52.498;13.462;2024-03-25T03:20:38;95372.81;;;7.64
72236;BMP280;60146;52.498;13.462;2024-03-25T03:23:04;95340.88;;;7.60
72236;BMP280;60146;52.498;13.462;2024-03-25T03:25:29;95246.28;;;7.73
72236;BMP280;60146;52.498;13.462;2024-03-25T03:27:56;95259.88;;;7.58
72236;BMP280;60146;52.498;13.462;2024-03-25T03:30:21;95178.75;;;7.63
72236;BMP280;60146;52.498;13.462;2024-03-25T03:32:46;95195.88;;;7.61
72236;BMP280;60146;52.498;13.462;2024-03-25T03:35:12;95186.16;;;7.65
72236;BMP280;60146;52.498;13.462;2024-03-25T03:37:37;95201.03;;;7.64
72236;BMP280;60146;52.498;13.462;2024-03-25T03:40:03;95244.19;;;7.62
72236;BMP280;60146;52.498;13.462;2024-03-25T03:42:31;95225.56;;;7.66
72236;BMP280;60146;52.498;13.462;2024-03-25T03:44:56;95240.47;;;7.63
72236;BMP280;60146;52.498;13.462;2024-03-25T03:47:21;95248.34;;;7.59
72236;BMP280;60146;52.498;13.462;2024-03-25T03:49:47;95258.03;;;7.55
72236;BMP280;60146;52.498;13.462;2024-03-25T03:52:12;95277.66;;;7.63
72236;BMP280;60146;52.498;13.462;2024-03-25T03:54:38;95291.78;;;7.66
72236;BMP280;60146;52.498;13.462;2024-03-25T03:57:04;95291.09;;;7.58
72236;BMP280;60146;52.498;13.462;2024-03-25T03:59:30;95308.88;;;7.66
72236;BMP280;60146;52.498;13.462;2024-03-25T04:01:55;95318.53;;;7.66
72236;BMP280;60146;52.498;13.462;2024-03-25T04:04:21;95346.00;;;7.70
72236;BMP280;60146;52.498;13.462;2024-03-25T04:06:46;95348.94;;;7.72
72236;BMP280;60146;52.498;13.462;2024-03-25T04:09:11;95365.69;;;7.71
72236;BMP280;60146;52.498;13.462;2024-03-25T04:11:38;95362.41;;;7.64
72236;BMP280;60146;52.498;13.462;2024-03-25T04:14:04;95316.41;;;7.54
72236;BMP280;60146;52.498;13.462;2024-03-25T04:16:29;95296.31;;;7.58
72236;BMP280;60146;52.498;13.462;2024-03-25T04:18:56;95274.41;;;7.56
72236;BMP280;60146;52.498;13.462;2024-03-25T04:21:22;95288.16;;;7.56
72236;BMP280;60146;52.498;13.462;2024-03-25T04:23:47;95308.97;;;7.53
72236;BMP280;60146;52.498;13.462;2024-03-25T04:26:14;95295.69;;;7.47
72236;BMP280;60146;52.498;13.462;2024-03-25T04:28:40;95335.34;;;7.58
72236;BMP280;60146;52.498;13.462;2024-03-25T04:31:07;95372.09;;;7.60
72236;BMP280;60146;52.498;13.462;2024-03-25T04:33:32;95370.59;;;7.66
72236;BMP280;60146;52.498;13.462;2024-03-25T04:35:58;95396.97;;;7.65
72236;BMP280;60146;52.498;13.462;2024-03-25T04:38:23;95471.75;;;7.61
72236;BMP280;60146;52.498;13.462;2024-03-25T04:40:49;95472.84;;;7.66
72236;BMP280;60146;52.498;13.462;2024-03-25T04:43:15;95469.47;;;7.69
72236;BMP280;60146;52.498;13.462;2024-03-25T04:45:40;95486.59;;;7.64
72236;BMP280;60146;52.498;13.462;2024-03-25T04:48:06;95444.22;;;7.66
72236;BMP280;60146;52.498;13.462;2024-03-25T04:50:33;95419.56;;;7.78
72236;BMP280;60146;52.498;13.462;2024-03-25T04:52:58;95440.78;;;7.76
72236;BMP280;60146;52.498;13.462;2024-03-25T04:55:24;95418.47;;;7.75
72236;BMP280;60146;52.498;13.462;2024-03-25T04:57:49;95375.59;;;7.83
72236;BMP280;60146;52.498;13.462;2024-03-25T05:00:14;95359.25;;;7.86
72236;BMP280;60146;52.498;13.462;2024-03-25T05:02:40;95414.66;;;7.87
72236;BMP280;60146;52.498;13.462;2024-03-25T05:05:05;95393.47;;;7.81
72236;BMP280;60146;52.498;13.462;2024-03-25T05:07:32;95371.88;;;7.87
72236;BMP280;60146;52.498;13.462;2024-03-25T05:09:57;95372.25;;;7.83
72236;BMP280;60146;52.498;13.462;2024-03-25T05:12:23;95370.47;;;7.80
72236;BMP280;60146;52.498;13.462;2024-03-25T05:14:48;95398.28;;;7.86
72236;BMP280;60146;52.498;13.462;2024-03-25T05:17:13;95422.13;;;7.81
72236;BMP280;60146;52.498;13.462;2024-03-25T05:19:39;95384.16;;;7.87
72236;BMP280;60146;52.498;13.462;2024-03-25T05:22:04;95403.19;;;7.81
72236;BMP280;60146;52.498;13.462;2024-03-25T05:24:30;95397.91;;;7.87
72236;BMP280;60146;52.498;13.462;2024-03-25T05:26:56;95382.22;;;7.91
72236;BMP280;60146;52.498;13.462;2024-03-25T05:29:21;95528.00;;;7.98
72236;BMP280;60146;52.498;13.462;2024-03-25T05:32:00;95551.44;;;7.98
72236;BMP280;60146;52.498;13.462;2024-03-25T05:34:26;95577.84;;;8.00
72236;BMP280;60146;52.498;13.462;2024-03-25T05:36:52;95666.41;;;7.93
72236;BMP280;60146;52.498;13.462;2024-03-25T05:39:17;95756.47;;;7.94
72236;BMP280;60146;52.498;13.462;2024-03-25T05:41:43;95790.69;;;7.96
72236;BMP280;60146;52.498;13.462;2024-03-25T05:44:08;95837.25;;;7.87
72236;BMP280;60146;52.498;13.462;2024-03-25T05:46:34;95814.53;;;7.94
72236;BMP280;60146;52.498;13.462;2024-03-25T05:49:03;95807.09;;;7.89
72236;BMP280;60146;52.498;13.462;2024-03-25T05:51:29;95743.81;;;7.96
72236;BMP280;60146;52.498;13.462;2024-03-25T05:53:54;95697.69;;;7.96
72236;BMP280;60146;52.498;13.462;2024-03-25T05:56:20;95689.84;;;7.93
72236;BMP280;60146;52.498;13.462;2024-03-25T05:58:45;95648.50;;;8.02
72236;BMP280;60146;52.498;13.462;2024-03-25T06:01:10;95631.47;;;7.94
72236;BMP280;60146;52.498;13.462;2024-03-25T06:03:36;95647.06;;;8.01
72236;BMP280;60146;52.498;13.462;2024-03-25T06:06:01;95686.44;;;8.03
72236;BMP280;60146;52.498;13.462;2024-03-25T06:08:26;95659.31;;;8.04
72236;BMP280;60146;52.498;13.462;2024-03-25T06:10:52;95646.00;;;7.88
72236;BMP280;60146;52.498;13.462;2024-03-25T06:13:18;95565.97;;;7.99
72236;BMP280;60146;52.498;13.462;2024-03-25T06:15:44;95594.97;;;8.01
72236;BMP280;60146;52.498;13.462;2024-03-25T06:18:10;95655.63;;;7.91
72236;BMP280;60146;52.498;13.462;2024-03-25T06:20:36;95640.34;;;8.03
72236;BMP280;60146;52.498;13.462;2024-03-25T06:23:01;95726.72;;;7.95
72236;BMP280;60146;52.498;13.462;2024-03-25T06:25:27;95658.25;;;7.98
72236;BMP280;60146;52.498;13.462;2024-03-25T06:27:53;95658.22;;;8.01
72236;BMP280;60146;52.498;13.462;2024-03-25T06:30:19;95705.19;;;7.84
72236;BMP280;60146;52.498;13.462;2024-03-25T06:33:02;95604.72;;;7.87
72236;BMP280;60146;52.498;13.462;2024-03-25T06:35:46;95548.50;;;7.96
72236;BMP280;60146;52.498;13.462;2024-03-25T06:38:12;95602.44;;;7.92
72236;BMP280;60146;52.498;13.462;2024-03-25T06:40:37;95652.31;;;7.94
72236;BMP280;60146;52.498;13.462;2024-03-25T06:43:03;95640.38;;;7.96
72236;BMP280;60146;52.498;13.462;2024-03-25T06:45:29;95754.28;;;7.89
72236;BMP280;60146;52.498;13.462;2024-03-25T06:47:54;95745.72;;;7.88
72236;BMP280;60146;52.498;13.462;2024-03-25T06:50:20;95745.72;;;7.85
72236;BMP280;60146;52.498;13.462;2024-03-25T06:52:45;95661.31;;;7.79
72236;BMP280;60146;52.498;13.462;2024-03-25T06:55:11;95604.41;;;7.78
72236;BMP280;60146;52.498;13.462;2024-03-25T06:57:36;95614.81;;;7.74
72236;BMP280;60146;52.498;13.462;2024-03-25T07:00:01;95598.84;;;7.72
72236;BMP280;60146;52.498;13.462;2024-03-25T07:02:31;95548.66;;;7.75
72236;BMP280;60146;52.498;13.462;2024-03-25T07:04:57;95611.78;;;7.89
72236;BMP280;60146;52.498;13.462;2024-03-25T07:07:22;95698.06;;;7.95
72236;BMP280;60146;52.498;13.462;2024-03-25T07:09:47;95786.63;;;7.95
72236;BMP280;60146;52.498;13.462;2024-03-25T07:12:12;95766.53;;;7.88
72236;BMP280;60146;52.498;13.462;2024-03-25T07:14:38;95722.59;;;7.97
72236;BMP280;60146;52.498;13.462;2024-03-25T07:17:03;95676.09;;;7.96
72236;BMP280;60146;52.498;13.462;2024-03-25T07:19:28;95619.53;;;7.93
72236;BMP280;60146;52.498;13.462;2024-03-25T07:21:54;95576.41;;;7.92
72236;BMP280;60146;52.498;13.462;2024-03-25T07:24:19;95565.63;;;7.93
72236;BMP280;60146;52.498;13.462;2024-03-25T07:26:44;95580.09;;;7.98
72236;BMP280;60146;52.498;13.462;2024-03-25T07:29:10;95605.41;;;7.97
72236;BMP280;60146;52.498;13.462;2024-03-25T07:31:36;95650.78;;;8.00
72236;BMP280;60146;52.498;13.462;2024-03-25T07:34:01;95664.53;;;8.04
72236;BMP280;60146;52.498;13.462;2024-03-25T07:36:26;95626.97;;;7.98
72236;BMP280;60146;52.498;13.462;2024-03-25T07:38:53;95604.56;;;8.10
72236;BMP280;60146;52.498;13.462;2024-03-25T07:41:19;95687.88;;;8.17
72236;BMP280;60146;52.498;13.462;2024-03-25T07:43:44;95789.13;;;8.15
72236;BMP280;60146;52.498;13.462;2024-03-25T07:46:09;95842.03;;;8.06
72236;BMP280;60146;52.498;13.462;2024-03-25T07:48:34;95808.50;;;8.11
72236;BMP280;60146;52.498;13.462;2024-03-25T07:51:00;95799.91;;;8.17
72236;BMP280;60146;52.498;13.462;2024-03-25T07:53:26;95846.44;;;8.22
72236;BMP280;60146;52.498;13.462;2024-03-25T07:55:51;95882.13;;;8.28
72236;BMP280;60146;52.498;13.462;2024-03-25T07:58:17;95888.78;;;8.40
72236;BMP280;60146;52.498;13.462;2024-03-25T08:00:42;95892.50;;;8.46
72236;BMP280;60146;52.498;13.462;2024-03-25T08:03:07;95838.81;;;8.55
72236;BMP280;60146;52.498;13.462;2024-03-25T08:05:33;95912.56;;;8.59
72236;BMP280;60146;52.498;13.462;2024-03-25T08:07:58;96101.78;;;8.56
72236;BMP280;60146;52.498;13.462;2024-03-25T08:10:23;96232.91;;;8.67
72236;BMP280;60146;52.498;13.462;2024-03-25T08:12:49;96309.28;;;8.68
72236;BMP280;60146;52.498;13.462;2024-03-25T08:15:14;96460.13;;;8.55
72236;BMP280;60146;52.498;13.462;2024-03-25T08:17:39;96339.84;;;8.67
72236;BMP280;60146;52.498;13.462;2024-03-25T08:20:05;96402.81;;;8.69
72236;BMP280;60146;52.498;13.462;2024-03-25T08:22:31;96416.22;;;8.78
72236;BMP280;60146;52.498;13.462;2024-03-25T08:24:56;96426.75;;;8.95
72236;BMP280;60146;52.498;13.462;2024-03-25T08:27:21;96551.34;;;9.12
72236;BMP280;60146;52.498;13.462;2024-03-25T08:29:47;96660.28;;;9.21
72236;BMP280;60146;52.498;13.462;2024-03-25T08:32:14;96674.56;;;9.44
72236;BMP280;60146;52.498;13.462;2024-03-25T08:34:39;96812.69;;;9.56
72236;BMP280;60146;52.498;13.462;2024-03-25T08:37:04;96869.53;;;9.73
72236;BMP280;60146;52.498;13.462;2024-03-25T08:39:30;96914.19;;;9.54
72236;BMP280;60146;52.498;13.462;2024-03-25T08:41:55;96871.28;;;9.58
72236;BMP280;60146;52.498;13.462;2024-03-25T08:44:20;96918.31;;;9.58
72236;BMP280;60146;52.498;13.462;2024-03-25T08:46:46;96983.06;;;9.78
72236;BMP280;60146;52.498;13.462;2024-03-25T08:49:12;97100.47;;;9.97
72236;BMP280;60146;52.498;13.462;2024-03-25T08:51:37;97145.56;;;9.84
72236;BMP280;60146;52.498;13.462;2024-03-25T08:54:02;97054.78;;;9.81
72236;BMP280;60146;52.498;13.462;2024-03-25T08:56:28;97081.53;;;9.64
72236;BMP280;60146;52.498;13.462;2024-03-25T08:58:54;97026.97;;;9.63
72236;BMP280;60146;52.498;13.462;2024-03-25T09:01:21;96975.69;;;9.48
72236;BMP280;60146;52.498;13.462;2024-03-25T09:03:46;96982.22;;;9.64
72236;BMP280;60146;52.498;13.462;2024-03-25T09:06:13;97056.81;;;9.62
72236;BMP280;60146;52.498;13.462;2024-03-25T09:08:38;97030.66;;;9.55
72236;BMP280;60146;52.498;13.462;2024-03-25T09:11:23;97046.03;;;9.63
72236;BMP280;60146;52.498;13.462;2024-03-25T09:13:50;97010.00;;;9.82
72236;BMP280;60146;52.498;13.462;2024-03-25T09:16:15;97079.38;;;9.76
72236;BMP280;60146;52.498;13.462;2024-03-25T09:18:41;97250.78;;;9.77
72236;BMP280;60146;52.498;13.462;2024-03-25T09:21:06;97312.25;;;9.68
72236;BMP280;60146;52.498;13.462;2024-03-25T09:23:31;97209.97;;;9.70
72236;BMP280;60146;52.498;13.462;2024-03-25T09:25:57;97153.75;;;9.82
72236;BMP280;60146;52.498;13.462;2024-03-25T09:28:22;97108.59;;;9.85
72236;BMP280;60146;52.498;13.462;2024-03-25T09:30:48;97235.22;;;9.91
72236;BMP280;60146;52.498;13.462;2024-03-25T09:33:14;97437.75;;;9.97
72236;BMP280;60146;52.498;13.462;2024-03-25T09:35:39;97354.47;;;9.99
72236;BMP280;60146;52.498;13.462;2024-03-25T09:38:05;97388.69;;;9.87
72236;BMP280;60146;52.498;13.462;2024-03-25T09:40:31;97494.72;;;9.85
72236;BMP280;60146;52.498;13.462;2024-03-25T09:42:56;97443.09;;;9.78
72236;BMP280;60146;52.498;13.462;2024-03-25T09:45:25;97577.25;;;9.64
72236;BMP280;60146;52.498;13.462;2024-03-25T09:47:53;97583.41;;;9.74
72236;BMP280;60146;52.498;13.462;2024-03-25T09:50:20;97637.63;;;9.77
72236;BMP280;60146;52.498;13.462;2024-03-25T09:52:46;97541.91;;;9.51
72236;BMP280;60146;52.498;13.462;2024-03-25T09:55:12;97336.00;;;9.85
72236;BMP280;60146;52.498;13.462;2024-03-25T09:57:37;97564.59;;;10.10
72236;BMP280;60146;52.498;13.462;2024-03-25T10:00:05;97619.00;;;10.01
72236;BMP280;60146;52.498;13.462;2024-03-25T10:02:32;97577.47;;;9.96
72236;BMP280;60146;52.498;13.462;2024-03-25T10:04:57;97529.88;;;9.87
72236;BMP280;60146;52.498;13.462;2024-03-25T10:07:23;97613.97;;;10.11
72236;BMP280;60146;52.498;13.462;2024-03-25T10:09:50;97693.56;;;10.32
72236;BMP280;60146;52.498;13.462;2024-03-25T10:12:15;97786.94;;;10.69
72236;BMP280;60146;52.498;13.462;2024-03-25T10:14:41;97982.13;;;11.03
72236;BMP280;60146;52.498;13.462;2024-03-25T10:17:06;98068.19;;;11.38
72236;BMP280;60146;52.498;13.462;2024-03-25T10:19:33;98293.69;;;11.57
72236;BMP280;60146;52.498;13.462;2024-03-25T10:24:36;98335.84;;;11.67
72236;BMP280;60146;52.498;13.462;2024-03-25T10:27:01;98434.53;;;11.57
72236;BMP280;60146;52.498;13.462;2024-03-25T10:29:27;98452.94;;;11.30
72236;BMP280;60146;52.498;13.462;2024-03-25T10:32:01;98445.22;;;11.06
72236;BMP280;60146;52.498;13.462;2024-03-25T10:34:27;98476.69;;;10.95
72236;BMP280;60146;52.498;13.462;2024-03-25T10:36:57;98499.50;;;10.94
72236;BMP280;60146;52.498;13.462;2024-03-25T10:39:27;98553.09;;;10.96
72236;BMP280;60146;52.498;13.462;2024-03-25T10:41:56;98626.03;;;10.83
72236;BMP280;60146;52.498;13.462;2024-03-25T10:44:25;98559.47;;;10.96
72236;BMP280;60146;52.498;13.462;2024-03-25T10:47:00;98631.38;;;10.98
72236;BMP280;60146;52.498;13.462;2024-03-25T10:49:33;98667.72;;;10.99
72236;BMP280;60146;52.498;13.462;2024-03-25T10:52:00;98697.94;;;11.20
72236;BMP280;60146;52.498;13.462;2024-03-25T10:54:28;98745.03;;;11.52
72236;BMP280;60146;52.498;13.462;2024-03-25T10:56:55;98899.63;;;11.49
72236;BMP280;60146;52.498;13.462;2024-03-25T10:59:22;99014.56;;;11.90
72236;BMP280;60146;52.498;13.462;2024-03-25T11:01:49;99125.31;;;12.51
72236;BMP280;60146;52.498;13.462;2024-03-25T11:04:14;99225.53;;;12.96
72236;BMP280;60146;52.498;13.462;2024-03-25T11:06:40;99312.28;;;13.43
72236;BMP280;60146;52.498;13.462;2024-03-25T11:09:05;99486.69;;;14.49
72236;BMP280;60146;52.498;13.462;2024-03-25T11:11:32;99604.53;;;13.58
72236;BMP280;60146;52.498;13.462;2024-03-25T11:13:58;99624.34;;;13.87
72236;BMP280;60146;52.498;13.462;2024-03-25T11:16:29;99639.25;;;14.27
72236;BMP280;60146;52.498;13.462;2024-03-25T11:18:54;99694.28;;;14.28
72236;BMP280;60146;52.498;13.462;2024-03-25T11:21:26;99692.75;;;14.51
72236;BMP280;60146;52.498;13.462;2024-03-25T11:23:52;99752.00;;;14.88
72236;BMP280;60146;52.498;13.462;2024-03-25T11:26:26;99841.16;;;14.94
72236;BMP280;60146;52.498;13.462;2024-03-25T11:28:55;99869.84;;;14.84
72236;BMP280;60146;52.498;13.462;2024-03-25T11:31:21;99867.72;;;14.35
72236;BMP280;60146;52.498;13.462;2024-03-25T11:33:49;99871.13;;;14.15
72236;BMP280;60146;52.498;13.462;2024-03-25T11:36:15;99882.78;;;14.77
72236;BMP280;60146;52.498;13.462;2024-03-25T11:38:40;99971.22;;;15.73
72236;BMP280;60146;52.498;13.462;2024-03-25T11:41:10;100004.81;;;17.00
72236;BMP280;60146;52.498;13.462;2024-03-25T11:43:36;100049.91;;;17.61
72236;BMP280;60146;52.498;13.462;2024-03-25T11:46:02;100068.00;;;17.28
72236;BMP280;60146;52.498;13.462;2024-03-25T11:48:29;100076.78;;;16.40
72236;BMP280;60146;52.498;13.462;2024-03-25T11:50:54;100055.22;;;15.68
72236;BMP280;60146;52.498;13.462;2024-03-25T11:53:20;100069.44;;;15.87
72236;BMP280;60146;52.498;13.462;2024-03-25T11:55:46;100068.00;;;15.78
72236;BMP280;60146;52.498;13.462;2024-03-25T11:58:11;100065.84;;;14.65
72236;BMP280;60146;52.498;13.462;2024-03-25T12:00:44;100071.69;;;15.10
72236;BMP280;60146;52.498;13.462;2024-03-25T12:03:13;100063.00;;;14.90
72236;BMP280;60146;52.498;13.462;2024-03-25T12:05:40;100068.75;;;14.92
72236;BMP280;60146;52.498;13.462;2024-03-25T12:08:08;100068.81;;;15.15
72236;BMP280;60146;52.498;13.462;2024-03-25T12:10:34;100071.31;;;16.10
72236;BMP280;60146;52.498;13.462;2024-03-25T12:13:19;100064.88;;;16.85
72236;BMP280;60146;52.498;13.462;2024-03-25T12:15:45;100083.25;;;16.66
72236;BMP280;60146;52.498;13.462;2024-03-25T12:18:10;100088.84;;;17.03
72236;BMP280;60146;52.498;13.462;2024-03-25T12:20:36;100079.84;;;16.66
72236;BMP280;60146;52.498;13.462;2024-03-25T12:23:02;100081.66;;;18.92
72236;BMP280;60146;52.498;13.462;2024-03-25T12:25:27;100098.03;;;19.34
72236;BMP280;60146;52.498;13.462;2024-03-25T12:27:52;100105.25;;;19.34
72236;BMP280;60146;52.498;13.462;2024-03-25T12:30:19;100112.88;;;18.98
72236;BMP280;60146;52.498;13.462;2024-03-25T12:32:45;100110.16;;;17.48
72236;BMP280;60146;52.498;13.462;2024-03-25T12:35:11;100108.91;;;15.09
72236;BMP280;60146;52.498;13.462;2024-03-25T12:37:38;100105.31;;;15.33
72236;BMP280;60146;52.498;13.462;2024-03-25T12:40:09;100105.84;;;14.38
72236;BMP280;60146;52.498;13.462;2024-03-25T12:42:36;100081.78;;;14.68
72236;BMP280;60146;52.498;13.462;2024-03-25T12:45:01;100092.53;;;14.83
72236;BMP280;60146;52.498;13.462;2024-03-25T12:47:28;100092.91;;;14.94
72236;BMP280;60146;52.498;13.462;2024-03-25T12:49:54;100098.47;;;14.52
72236;BMP280;60146;52.498;13.462;2024-03-25T12:52:19;100098.75;;;14.31
72236;BMP280;60146;52.498;13.462;2024-03-25T12:54:44;100093.13;;;14.04
72236;BMP280;60146;52.498;13.462;2024-03-25T12:57:11;100096.09;;;13.33
72236;BMP280;60146;52.498;13.462;2024-03-25T12:59:37;100091.59;;;13.00
72236;BMP280;60146;52.498;13.462;2024-03-25T13:02:02;100084.34;;;12.97
72236;BMP280;60146;52.498;13.462;2024-03-25T13:04:28;100081.38;;;12.82
72236;BMP280;60146;52.498;13.462;2024-03-25T13:06:53;100091.59;;;12.75
72236;BMP280;60146;52.498;13.462;2024-03-25T13:09:18;100100.03;;;12.56
72236;BMP280;60146;52.498;13.462;2024-03-25T13:11:44;100102.47;;;12.44
72236;BMP280;60146;52.498;13.462;2024-03-25T13:14:13;100110.03;;;12.37
72236;BMP280;60146;52.498;13.462;2024-03-25T13:16:39;100107.06;;;12.30
72236;BMP280;60146;52.498;13.462;2024-03-25T13:19:04;100102.56;;;12.31
72236;BMP280;60146;52.498;13.462;2024-03-25T13:21:30;100098.97;;;12.57
72236;BMP280;60146;52.498;13.462;2024-03-25T13:23:55;100092.38;;;13.09
72236;BMP280;60146;52.498;13.462;2024-03-25T13:26:21;100111.91;;;13.94
72236;BMP280;60146;52.498;13.462;2024-03-25T13:28:46;100118.38;;;14.13
72236;BMP280;60146;52.498;13.462;2024-03-25T13:31:12;100122.75;;;14.01
72236;BMP280;60146;52.498;13.462;2024-03-25T13:33:41;100116.44;;;13.85
72236;BMP280;60146;52.498;13.462;2024-03-25T13:36:07;100109.16;;;13.82
72236;BMP280;60146;52.498;13.462;2024-03-25T13:38:32;100111.69;;;13.79
72236;BMP280;60146;52.498;13.462;2024-03-25T13:41:02;100119.75;;;14.11
72236;BMP280;60146;52.498;13.462;2024-03-25T13:43:28;100122.59;;;14.91
72236;BMP280;60146;52.498;13.462;2024-03-25T13:45:54;100125.16;;;15.94
72236;BMP280;60146;52.498;13.462;2024-03-25T13:48:19;100128.28;;;16.08
72236;BMP280;60146;52.498;13.462;2024-03-25T13:50:45;100135.41;;;16.30
72236;BMP280;60146;52.498;13.462;2024-03-25T13:53:10;100129.38;;;16.53
72236;BMP280;60146;52.498;13.462;2024-03-25T13:55:36;100124.09;;;16.53
72236;BMP280;60146;52.498;13.462;2024-03-25T13:58:01;100127.72;;;16.99
72236;BMP280;60146;52.498;13.462;2024-03-25T14:00:29;100124.50;;;16.67
72236;BMP280;60146;52.498;13.462;2024-03-25T14:02:59;100135.66;;;16.99